sensor_id;sensor_type;location;lat;lon;timestamp;pressure;altitude;pressure_sealevel;temperature;humidity
22440;BME280;11387;51.612;7.210;2023-03-18T00:00:49;99986.59;;;11.80;70.34
22440;BME280;11387;51.612;7.210;2023-03-18T00:03:18;99986.78;;;11.84;70.51
22440;BME280;11387;51.612;7.210;2023-03-18T00:05:48;99985.31;;;11.77;70.81
22440;BME280;11387;51.612;7.210;2023-03-18T00:08:17;99970.31;;;11.84;70.25
22440;BME280;11387;51.612;7.210;2023-03-18T00:10:49;99979.50;;;11.79;70.47
22440;BME280;11387;51.612;7.210;2023-03-18T00:13:18;99992.41;;;11.78;70.82
22440;BME280;11387;51.612;7.210;2023-03-18T00:15:49;99981.44;;;11.78;70.93
22440;BME280;11387;51.612;7.210;2023-03-18T00:18:18;99984.00;;;11.75;70.80
22440;BME280;11387;51.612;7.210;2023-03-18T00:20:48;99975.59;;;11.71;71.09
22440;BME280;11387;51.612;7.210;2023-03-18T00:23:17;99973.81;;;11.67;71.60
22440;BME280;11387;51.612;7.210;2023-03-18T00:25:46;99977.69;;;11.57;71.92
22440;BME280;11387;51.612;7.210;2023-03-18T00:28:16;99975.44;;;11.59;71.95
22440;BME280;11387;51.612;7.210;2023-03-18T00:30:47;99967.38;;;11.54;72.36
22440;BME280;11387;51.612;7.210;2023-03-18T00:33:18;99977.06;;;11.60;72.16
22440;BME280;11387;51.612;7.210;2023-03-18T00:35:49;99986.72;;;11.66;71.87
22440;BME280;11387;51.612;7.210;2023-03-18T00:38:18;99988.66;;;11.74;71.47
22440;BME280;11387;51.612;7.210;2023-03-18T00:40:49;99992.38;;;11.70;71.76
22440;BME280;11387;51.612;7.210;2023-03-18T00:43:29;100000.91;;;11.68;71.76
22440;BME280;11387;51.612;7.210;2023-03-18T00:46:02;100000.59;;;11.61;72.18
22440;BME280;11387;51.612;7.210;2023-03-18T00:48:31;100002.19;;;11.62;71.97
22440;BME280;11387;51.612;7.210;2023-03-18T00:51:01;99992.69;;;11.60;72.15
22440;BME280;11387;51.612;7.210;2023-03-18T00:53:30;100003.66;;;11.60;72.40
22440;BME280;11387;51.612;7.210;2023-03-18T00:55:58;100001.38;;;11.62;71.99
22440;BME280;11387;51.612;7.210;2023-03-18T00:58:27;100007.97;;;11.52;72.50
22440;BME280;11387;51.612;7.210;2023-03-18T01:00:56;100011.84;;;11.51;72.86
22440;BME280;11387;51.612;7.210;2023-03-18T01:03:25;100000.59;;;11.61;72.48
22440;BME280;11387;51.612;7.210;2023-03-18T01:05:53;100001.72;;;11.60;72.10
22440;BME280;11387;51.612;7.210;2023-03-18T01:08:23;99992.84;;;11.63;72.67
22440;BME280;11387;51.612;7.210;2023-03-18T01:10:53;99984.78;;;11.58;72.43
22440;BME280;11387;51.612;7.210;2023-03-18T01:13:21;99979.91;;;11.38;73.02
22440;BME280;11387;51.612;7.210;2023-03-18T01:15:53;99976.06;;;11.30;73.59
22440;BME280;11387;51.612;7.210;2023-03-18T01:18:22;99981.34;;;11.35;73.70
22440;BME280;11387;51.612;7.210;2023-03-18T01:20:51;99983.59;;;11.33;73.41
22440;BME280;11387;51.612;7.210;2023-03-18T01:23:23;99990.56;;;11.31;73.99
22440;BME280;11387;51.612;7.210;2023-03-18T01:25:52;99982.63;;;11.21;74.26
22440;BME280;11387;51.612;7.210;2023-03-18T01:28:22;99972.28;;;11.09;74.73
22440;BME280;11387;51.612;7.210;2023-03-18T01:30:51;99975.66;;;11.06;74.86
22440;BME280;11387;51.612;7.210;2023-03-18T01:33:20;99980.50;;;11.09;75.20
22440;BME280;11387;51.612;7.210;2023-03-18T01:35:52;99982.41;;;11.08;74.86
22440;BME280;11387;51.612;7.210;2023-03-18T01:38:24;99995.97;;;11.13;74.70
22440;BME280;11387;51.612;7.210;2023-03-18T01:40:54;99998.22;;;11.11;74.82
22440;BME280;11387;51.612;7.210;2023-03-18T01:43:25;99995.34;;;11.17;74.65
22440;BME280;11387;51.612;7.210;2023-03-18T01:45:56;99997.13;;;11.21;74.47
22440;BME280;11387;51.612;7.210;2023-03-18T01:48:30;99993.44;;;11.26;74.34
22440;BME280;11387;51.612;7.210;2023-03-18T01:51:05;99992.94;;;11.24;74.55
22440;BME280;11387;51.612;7.210;2023-03-18T01:53:40;99996.94;;;11.18;74.62
22440;BME280;11387;51.612;7.210;2023-03-18T01:56:10;99991.34;;;11.23;74.46
22440;BME280;11387;51.612;7.210;2023-03-18T01:58:44;99986.16;;;11.21;74.52
22440;BME280;11387;51.612;7.210;2023-03-18T02:01:18;99992.88;;;11.06;75.28
22440;BME280;11387;51.612;7.210;2023-03-18T02:03:50;99995.63;;;11.06;75.40
22440;BME280;11387;51.612;7.210;2023-03-18T02:06:35;100001.56;;;11.00;75.70
22440;BME280;11387;51.612;7.210;2023-03-18T02:09:06;100012.25;;;11.19;75.13
22440;BME280;11387;51.612;7.210;2023-03-18T02:11:42;100015.97;;;11.31;74.76
22440;BME280;11387;51.612;7.210;2023-03-18T02:14:14;100006.63;;;11.24;74.76
22440;BME280;11387;51.612;7.210;2023-03-18T02:16:46;100008.25;;;11.25;75.08
22440;BME280;11387;51.612;7.210;2023-03-18T02:19:35;100009.38;;;11.32;74.47
22440;BME280;11387;51.612;7.210;2023-03-18T02:22:15;100010.34;;;11.36;74.57
22440;BME280;11387;51.612;7.210;2023-03-18T02:24:52;100016.84;;;11.49;73.98
22440;BME280;11387;51.612;7.210;2023-03-18T02:27:25;100009.09;;;11.51;74.30
22440;BME280;11387;51.612;7.210;2023-03-18T02:29:57;100001.69;;;11.43;74.44
22440;BME280;11387;51.612;7.210;2023-03-18T02:32:29;99986.72;;;11.49;74.36
22440;BME280;11387;51.612;7.210;2023-03-18T02:35:02;99997.31;;;11.42;74.50
22440;BME280;11387;51.612;7.210;2023-03-18T02:37:31;99999.28;;;11.50;74.54
22440;BME280;11387;51.612;7.210;2023-03-18T02:40:11;99999.78;;;11.52;74.61
22440;BME280;11387;51.612;7.210;2023-03-18T02:42:42;99996.88;;;11.57;74.77
22440;BME280;11387;51.612;7.210;2023-03-18T02:45:27;100002.81;;;11.51;74.62
22440;BME280;11387;51.612;7.210;2023-03-18T02:48:01;100002.50;;;11.52;75.00
22440;BME280;11387;51.612;7.210;2023-03-18T02:50:35;100003.16;;;11.49;74.80
22440;BME280;11387;51.612;7.210;2023-03-18T02:53:05;100003.28;;;11.44;75.26
22440;BME280;11387;51.612;7.210;2023-03-18T02:55:33;100002.16;;;11.45;75.43
22440;BME280;11387;51.612;7.210;2023-03-18T02:58:03;100002.31;;;11.40;75.92
22440;BME280;11387;51.612;7.210;2023-03-18T03:00:32;99989.25;;;11.37;76.13
22440;BME280;11387;51.612;7.210;2023-03-18T03:03:01;99986.97;;;11.22;77.03
22440;BME280;11387;51.612;7.210;2023-03-18T03:05:32;100003.69;;;11.11;77.64
22440;BME280;11387;51.612;7.210;2023-03-18T03:08:01;100001.91;;;11.07;77.68
22440;BME280;11387;51.612;7.210;2023-03-18T03:10:30;100005.44;;;10.99;78.68
22440;BME280;11387;51.612;7.210;2023-03-18T03:13:01;100005.88;;;10.92;78.66
22440;BME280;11387;51.612;7.210;2023-03-18T03:15:31;100001.03;;;10.89;79.09
22440;BME280;11387;51.612;7.210;2023-03-18T03:18:00;100004.66;;;10.67;80.01
22440;BME280;11387;51.612;7.210;2023-03-18T03:20:29;100004.47;;;10.64;80.29
22440;BME280;11387;51.612;7.210;2023-03-18T03:23:01;100013.25;;;10.52;81.39
22440;BME280;11387;51.612;7.210;2023-03-18T03:25:30;100014.53;;;10.55;81.45
22440;BME280;11387;51.612;7.210;2023-03-18T03:27:59;100027.16;;;10.42;82.02
22440;BME280;11387;51.612;7.210;2023-03-18T03:30:29;100030.47;;;10.30;82.93
22440;BME280;11387;51.612;7.210;2023-03-18T03:33:03;100031.94;;;10.59;82.48
22440;BME280;11387;51.612;7.210;2023-03-18T03:35:32;100030.19;;;10.63;81.78
22440;BME280;11387;51.612;7.210;2023-03-18T03:38:01;100028.66;;;10.79;81.56
22440;BME280;11387;51.612;7.210;2023-03-18T03:40:30;100030.28;;;10.80;81.76
22440;BME280;11387;51.612;7.210;2023-03-18T03:43:00;100031.63;;;10.91;81.19
22440;BME280;11387;51.612;7.210;2023-03-18T03:45:34;100028.66;;;10.79;81.57
22440;BME280;11387;51.612;7.210;2023-03-18T03:48:09;100023.56;;;10.86;81.44
22440;BME280;11387;51.612;7.210;2023-03-18T03:50:38;100027.84;;;10.78;82.15
22440;BME280;11387;51.612;7.210;2023-03-18T03:53:08;100025.56;;;10.72;82.64
22440;BME280;11387;51.612;7.210;2023-03-18T03:55:36;100023.50;;;10.69;82.87
22440;BME280;11387;51.612;7.210;2023-03-18T03:58:05;100023.50;;;10.69;82.89
22440;BME280;11387;51.612;7.210;2023-03-18T04:00:33;100032.44;;;10.61;83.95
22440;BME280;11387;51.612;7.210;2023-03-18T04:03:02;100030.59;;;10.48;84.14
22440;BME280;11387;51.612;7.210;2023-03-18T04:05:32;100035.94;;;10.53;84.42
22440;BME280;11387;51.612;7.210;2023-03-18T04:08:01;100041.78;;;10.37;84.60
22440;BME280;11387;51.612;7.210;2023-03-18T04:10:29;100043.53;;;10.33;85.28
22440;BME280;11387;51.612;7.210;2023-03-18T04:12:58;100045.50;;;10.19;85.60
22440;BME280;11387;51.612;7.210;2023-03-18T04:15:26;100039.91;;;10.24;86.14
22440;BME280;11387;51.612;7.210;2023-03-18T04:17:55;100045.66;;;10.36;85.77
22440;BME280;11387;51.612;7.210;2023-03-18T04:20:23;100051.16;;;10.45;85.25
22440;BME280;11387;51.612;7.210;2023-03-18T04:22:53;100055.44;;;10.60;84.62
22440;BME280;11387;51.612;7.210;2023-03-18T04:25:22;100064.66;;;10.64;84.39
22440;BME280;11387;51.612;7.210;2023-03-18T04:27:50;100055.00;;;10.66;84.48
22440;BME280;11387;51.612;7.210;2023-03-18T04:30:19;100068.06;;;10.69;84.28
22440;BME280;11387;51.612;7.210;2023-03-18T04:32:49;100066.97;;;10.79;84.28
22440;BME280;11387;51.612;7.210;2023-03-18T04:35:20;100071.06;;;10.90;83.77
22440;BME280;11387;51.612;7.210;2023-03-18T04:37:49;100076.66;;;10.85;83.99
22440;BME280;11387;51.612;7.210;2023-03-18T04:40:20;100078.16;;;10.91;83.79
22440;BME280;11387;51.612;7.210;2023-03-18T04:42:51;100080.44;;;10.98;83.52
22440;BME280;11387;51.612;7.210;2023-03-18T04:45:22;100081.09;;;10.95;83.61
22440;BME280;11387;51.612;7.210;2023-03-18T04:47:51;100073.00;;;10.90;83.97
22440;BME280;11387;51.612;7.210;2023-03-18T04:50:19;100070.44;;;10.93;83.78
22440;BME280;11387;51.612;7.210;2023-03-18T04:52:49;100075.13;;;10.93;83.84
22440;BME280;11387;51.612;7.210;2023-03-18T04:55:19;100069.66;;;11.01;83.55
22440;BME280;11387;51.612;7.210;2023-03-18T04:57:48;100085.13;;;10.97;83.81
22440;BME280;11387;51.612;7.210;2023-03-18T05:00:19;100074.31;;;11.01;83.68
22440;BME280;11387;51.612;7.210;2023-03-18T05:02:49;100077.97;;;10.88;84.26
22440;BME280;11387;51.612;7.210;2023-03-18T05:05:17;100085.38;;;10.87;84.24
22440;BME280;11387;51.612;7.210;2023-03-18T05:07:47;100086.38;;;10.91;84.30
22440;BME280;11387;51.612;7.210;2023-03-18T05:10:15;100085.38;;;10.87;84.58
22440;BME280;11387;51.612;7.210;2023-03-18T05:12:46;100083.13;;;10.89;84.44
22440;BME280;11387;51.612;7.210;2023-03-18T05:15:16;100086.38;;;10.91;84.44
22440;BME280;11387;51.612;7.210;2023-03-18T05:17:44;100083.13;;;10.89;84.25
22440;BME280;11387;51.612;7.210;2023-03-18T05:20:13;100079.53;;;10.80;84.89
22440;BME280;11387;51.612;7.210;2023-03-18T05:22:42;100090.03;;;10.87;84.79
22440;BME280;11387;51.612;7.210;2023-03-18T05:25:10;100083.94;;;10.90;84.51
22440;BME280;11387;51.612;7.210;2023-03-18T05:27:39;100086.50;;;10.86;84.80
22440;BME280;11387;51.612;7.210;2023-03-18T05:30:10;100087.00;;;10.88;84.62
22440;BME280;11387;51.612;7.210;2023-03-18T05:32:39;100093.97;;;10.94;83.85
22440;BME280;11387;51.612;7.210;2023-03-18T05:35:09;100090.22;;;10.90;84.58
22440;BME280;11387;51.612;7.210;2023-03-18T05:37:37;100091.97;;;10.86;84.84
22440;BME280;11387;51.612;7.210;2023-03-18T05:40:07;100091.47;;;10.84;84.61
22440;BME280;11387;51.612;7.210;2023-03-18T05:42:38;100093.66;;;10.96;84.69
22440;BME280;11387;51.612;7.210;2023-03-18T05:45:24;100096.06;;;10.97;84.40
22440;BME280;11387;51.612;7.210;2023-03-18T05:47:53;100100.38;;;10.90;84.76
22440;BME280;11387;51.612;7.210;2023-03-18T05:50:27;100100.06;;;10.91;84.78
22440;BME280;11387;51.612;7.210;2023-03-18T05:52:56;100105.84;;;10.90;84.78
22440;BME280;11387;51.612;7.210;2023-03-18T05:55:24;100104.09;;;10.94;84.87
22440;BME280;11387;51.612;7.210;2023-03-18T05:57:54;100109.88;;;10.92;84.67
22440;BME280;11387;51.612;7.210;2023-03-18T06:00:25;100106.66;;;10.90;84.79
22440;BME280;11387;51.612;7.210;2023-03-18T06:02:55;100108.25;;;10.91;84.67
22440;BME280;11387;51.612;7.210;2023-03-18T06:05:33;100112.00;;;10.95;84.69
22440;BME280;11387;51.612;7.210;2023-03-18T06:08:02;100114.59;;;11.00;84.58
22440;BME280;11387;51.612;7.210;2023-03-18T06:10:30;100117.06;;;11.10;83.88
22440;BME280;11387;51.612;7.210;2023-03-18T06:12:59;100116.78;;;11.21;83.32
22440;BME280;11387;51.612;7.210;2023-03-18T06:15:29;100121.47;;;11.20;83.22
22440;BME280;11387;51.612;7.210;2023-03-18T06:17:58;100121.63;;;11.24;82.82
22440;BME280;11387;51.612;7.210;2023-03-18T06:20:27;100127.81;;;11.38;82.15
22440;BME280;11387;51.612;7.210;2023-03-18T06:22:55;100128.47;;;11.43;82.01
22440;BME280;11387;51.612;7.210;2023-03-18T06:25:24;100122.38;;;11.46;81.56
22440;BME280;11387;51.612;7.210;2023-03-18T06:27:52;100126.28;;;11.54;81.42
22440;BME280;11387;51.612;7.210;2023-03-18T06:30:21;100130.59;;;11.46;81.39
22440;BME280;11387;51.612;7.210;2023-03-18T06:32:51;100135.09;;;11.42;81.43
22440;BME280;11387;51.612;7.210;2023-03-18T06:35:25;100129.44;;;11.39;81.54
22440;BME280;11387;51.612;7.210;2023-03-18T06:37:55;100142.13;;;11.35;81.58
22440;BME280;11387;51.612;7.210;2023-03-18T06:40:23;100148.41;;;11.35;81.87
22440;BME280;11387;51.612;7.210;2023-03-18T06:42:52;100142.63;;;11.37;81.42
22440;BME280;11387;51.612;7.210;2023-03-18T06:45:20;100142.50;;;11.42;81.20
22440;BME280;11387;51.612;7.210;2023-03-18T06:47:50;100147.34;;;11.45;81.33
22440;BME280;11387;51.612;7.210;2023-03-18T06:50:19;100147.84;;;11.47;80.63
22440;BME280;11387;51.612;7.210;2023-03-18T06:52:48;100151.69;;;11.46;80.86
22440;BME280;11387;51.612;7.210;2023-03-18T06:55:17;100154.44;;;11.46;80.80
22440;BME280;11387;51.612;7.210;2023-03-18T06:57:45;100164.00;;;11.57;80.74
22440;BME280;11387;51.612;7.210;2023-03-18T07:00:15;100169.66;;;11.61;80.41
22440;BME280;11387;51.612;7.210;2023-03-18T07:02:44;100178.53;;;11.66;79.96
22440;BME280;11387;51.612;7.210;2023-03-18T07:05:14;100167.22;;;11.59;80.49
22440;BME280;11387;51.612;7.210;2023-03-18T07:07:43;100169.53;;;11.74;79.90
22440;BME280;11387;51.612;7.210;2023-03-18T07:10:17;100169.28;;;11.85;79.26
22440;BME280;11387;51.612;7.210;2023-03-18T07:12:46;100161.13;;;12.10;78.54
22440;BME280;11387;51.612;7.210;2023-03-18T07:15:16;100164.69;;;12.28;77.56
22440;BME280;11387;51.612;7.210;2023-03-18T07:17:47;100170.69;;;12.82;75.68
22440;BME280;11387;51.612;7.210;2023-03-18T07:20:17;100177.75;;;13.00;73.75
22440;BME280;11387;51.612;7.210;2023-03-18T07:22:47;100176.44;;;13.06;73.33
22440;BME280;11387;51.612;7.210;2023-03-18T07:25:15;100175.69;;;13.91;70.59
22440;BME280;11387;51.612;7.210;2023-03-18T07:27:44;100186.44;;;13.75;70.11
22440;BME280;11387;51.612;7.210;2023-03-18T07:30:13;100182.19;;;14.66;68.46
22440;BME280;11387;51.612;7.210;2023-03-18T07:32:42;100189.41;;;14.49;66.45
22440;BME280;11387;51.612;7.210;2023-03-18T07:35:12;100192.19;;;14.20;67.97
22440;BME280;11387;51.612;7.210;2023-03-18T07:37:42;100193.09;;;14.03;68.49
22440;BME280;11387;51.612;7.210;2023-03-18T07:40:11;100190.66;;;13.26;71.76
22440;BME280;11387;51.612;7.210;2023-03-18T07:42:40;100193.88;;;13.28;71.62
22440;BME280;11387;51.612;7.210;2023-03-18T07:45:09;100201.66;;;13.72;71.21
22440;BME280;11387;51.612;7.210;2023-03-18T07:47:37;100193.09;;;15.40;64.79
22440;BME280;11387;51.612;7.210;2023-03-18T07:50:07;100198.56;;;17.58;57.63
22440;BME280;11387;51.612;7.210;2023-03-18T07:52:35;100199.53;;;19.02;53.01
22440;BME280;11387;51.612;7.210;2023-03-18T07:55:07;100198.41;;;20.14;48.98
22440;BME280;11387;51.612;7.210;2023-03-18T07:57:36;100202.28;;;20.36;47.88
22440;BME280;11387;51.612;7.210;2023-03-18T08:00:09;100204.13;;;20.81;46.37
22440;BME280;11387;51.612;7.210;2023-03-18T08:02:38;100208.41;;;19.96;47.60
22440;BME280;11387;51.612;7.210;2023-03-18T08:05:08;100200.16;;;19.76;47.50
22440;BME280;11387;51.612;7.210;2023-03-18T08:07:37;100202.28;;;20.62;45.90
22440;BME280;11387;51.612;7.210;2023-03-18T08:10:08;100196.94;;;21.47;43.46
22440;BME280;11387;51.612;7.210;2023-03-18T08:12:37;100200.22;;;21.56;43.77
22440;BME280;11387;51.612;7.210;2023-03-18T08:15:20;100210.84;;;19.52;47.64
22440;BME280;11387;51.612;7.210;2023-03-18T08:17:48;100209.84;;;19.21;49.22
22440;BME280;11387;51.612;7.210;2023-03-18T08:20:17;100210.19;;;17.79;52.20
22440;BME280;11387;51.612;7.210;2023-03-18T08:22:46;100212.22;;;18.14;52.39
22440;BME280;11387;51.612;7.210;2023-03-18T08:25:16;100217.78;;;19.03;49.91
22440;BME280;11387;51.612;7.210;2023-03-18T08:27:44;100220.69;;;20.17;46.64
22440;BME280;11387;51.612;7.210;2023-03-18T08:30:13;100221.22;;;20.83;44.94
22440;BME280;11387;51.612;7.210;2023-03-18T08:32:42;100226.28;;;22.22;41.54
22440;BME280;11387;51.612;7.210;2023-03-18T08:35:11;100224.50;;;22.00;42.11
22440;BME280;11387;51.612;7.210;2023-03-18T08:37:40;100224.38;;;21.85;41.81
22440;BME280;11387;51.612;7.210;2023-03-18T08:40:09;100225.25;;;22.44;40.80
22440;BME280;11387;51.612;7.210;2023-03-18T08:42:39;100226.19;;;20.67;44.24
22440;BME280;11387;51.612;7.210;2023-03-18T08:45:08;100231.44;;;20.45;44.90
22440;BME280;11387;51.612;7.210;2023-03-18T08:47:37;100238.56;;;21.73;43.08
22440;BME280;11387;51.612;7.210;2023-03-18T08:50:06;100239.91;;;22.34;41.00
22440;BME280;11387;51.612;7.210;2023-03-18T08:52:36;100241.50;;;22.35;40.59
22440;BME280;11387;51.612;7.210;2023-03-18T08:55:06;100239.47;;;22.94;39.79
22440;BME280;11387;51.612;7.210;2023-03-18T08:57:35;100248.56;;;24.38;37.17
22440;BME280;11387;51.612;7.210;2023-03-18T09:00:07;100242.56;;;23.97;36.85
22440;BME280;11387;51.612;7.210;2023-03-18T09:02:37;100238.00;;;23.29;37.45
22440;BME280;11387;51.612;7.210;2023-03-18T09:05:06;100245.88;;;22.98;38.42
22440;BME280;11387;51.612;7.210;2023-03-18T09:07:34;100234.19;;;20.72;42.82
22440;BME280;11387;51.612;7.210;2023-03-18T09:10:03;100246.06;;;20.69;43.60
22440;BME280;11387;51.612;7.210;2023-03-18T09:12:32;100246.25;;;22.93;38.93
22440;BME280;11387;51.612;7.210;2023-03-18T09:15:00;100236.63;;;22.22;39.49
22440;BME280;11387;51.612;7.210;2023-03-18T09:17:30;100240.22;;;21.07;42.08
22440;BME280;11387;51.612;7.210;2023-03-18T09:20:18;100248.16;;;19.54;45.17
22440;BME280;11387;51.612;7.210;2023-03-18T09:22:47;100252.56;;;18.62;47.83
22440;BME280;11387;51.612;7.210;2023-03-18T09:25:18;100247.63;;;16.90;52.93
22440;BME280;11387;51.612;7.210;2023-03-18T09:27:46;100254.03;;;16.29;54.98
22440;BME280;11387;51.612;7.210;2023-03-18T09:30:15;100254.72;;;16.38;55.44
22440;BME280;11387;51.612;7.210;2023-03-18T09:32:45;100257.78;;;18.32;49.87
22440;BME280;11387;51.612;7.210;2023-03-18T09:35:13;100256.25;;;17.88;51.46
22440;BME280;11387;51.612;7.210;2023-03-18T09:37:42;100257.81;;;18.01;50.65
22440;BME280;11387;51.612;7.210;2023-03-18T09:40:17;100260.91;;;16.72;54.26
22440;BME280;11387;51.612;7.210;2023-03-18T09:42:58;100261.25;;;17.66;52.87
22440;BME280;11387;51.612;7.210;2023-03-18T09:45:32;100261.25;;;18.80;49.48
22440;BME280;11387;51.612;7.210;2023-03-18T09:48:30;100265.72;;;20.57;44.00
22440;BME280;11387;51.612;7.210;2023-03-18T09:51:07;100263.22;;;19.37;46.60
22440;BME280;11387;51.612;7.210;2023-03-18T09:53:42;100257.75;;;18.48;48.55
22440;BME280;11387;51.612;7.210;2023-03-18T09:56:17;100258.16;;;17.40;51.31
22440;BME280;11387;51.612;7.210;2023-03-18T09:58:51;100267.88;;;16.81;53.38
22440;BME280;11387;51.612;7.210;2023-03-18T10:01:22;100268.59;;;15.93;56.10
22440;BME280;11387;51.612;7.210;2023-03-18T10:03:58;100266.09;;;17.57;51.51
22440;BME280;11387;51.612;7.210;2023-03-18T10:06:30;100276.25;;;18.12;50.59
22440;BME280;11387;51.612;7.210;2023-03-18T10:09:07;100272.75;;;21.03;44.04
22440;BME280;11387;51.612;7.210;2023-03-18T10:11:40;100269.06;;;21.59;42.13
22440;BME280;11387;51.612;7.210;2023-03-18T10:14:17;100271.75;;;24.35;37.65
22440;BME280;11387;51.612;7.210;2023-03-18T10:16:54;100270.44;;;26.77;31.23
22440;BME280;11387;51.612;7.210;2023-03-18T10:19:27;100266.56;;;27.93;30.11
22440;BME280;11387;51.612;7.210;2023-03-18T10:22:10;100277.47;;;26.96;31.50
22440;BME280;11387;51.612;7.210;2023-03-18T10:24:47;100279.31;;;24.52;34.18
22440;BME280;11387;51.612;7.210;2023-03-18T10:27:20;100274.91;;;21.17;40.57
22440;BME280;11387;51.612;7.210;2023-03-18T10:29:56;100276.38;;;22.70;39.41
22440;BME280;11387;51.612;7.210;2023-03-18T10:32:34;100274.53;;;24.32;36.39
22440;BME280;11387;51.612;7.210;2023-03-18T10:35:25;100266.88;;;27.10;30.34
22440;BME280;11387;51.612;7.210;2023-03-18T10:38:01;100278.69;;;27.59;29.02
22440;BME280;11387;51.612;7.210;2023-03-18T10:40:34;100280.44;;;23.63;34.98
22440;BME280;11387;51.612;7.210;2023-03-18T10:43:05;100281.91;;;23.32;36.50
22440;BME280;11387;51.612;7.210;2023-03-18T10:45:42;100275.09;;;23.18;36.09
22440;BME280;11387;51.612;7.210;2023-03-18T10:48:16;100267.66;;;22.20;37.71
22440;BME280;11387;51.612;7.210;2023-03-18T10:51:02;100264.13;;;21.82;39.17
22440;BME280;11387;51.612;7.210;2023-03-18T10:53:38;100262.00;;;25.88;32.76
22440;BME280;11387;51.612;7.210;2023-03-18T10:56:10;100251.09;;;27.50;29.89
22440;BME280;11387;51.612;7.210;2023-03-18T10:58:41;100257.53;;;29.54;27.83
22440;BME280;11387;51.612;7.210;2023-03-18T11:01:11;100254.72;;;29.70;25.71
22440;BME280;11387;51.612;7.210;2023-03-18T11:03:49;100253.13;;;29.53;24.98
22440;BME280;11387;51.612;7.210;2023-03-18T11:06:22;100254.72;;;29.70;24.87
22440;BME280;11387;51.612;7.210;2023-03-18T11:09:00;100246.44;;;29.27;25.07
22440;BME280;11387;51.612;7.210;2023-03-18T11:11:32;100254.47;;;27.96;27.32
22440;BME280;11387;51.612;7.210;2023-03-18T11:14:01;100255.19;;;28.27;27.17
22440;BME280;11387;51.612;7.210;2023-03-18T11:16:37;100258.53;;;28.65;26.68
22440;BME280;11387;51.612;7.210;2023-03-18T11:19:24;100260.19;;;31.04;23.76
22440;BME280;11387;51.612;7.210;2023-03-18T11:22:12;100254.25;;;30.40;24.53
22440;BME280;11387;51.612;7.210;2023-03-18T11:24:42;100248.03;;;29.64;25.42
22440;BME280;11387;51.612;7.210;2023-03-18T11:27:26;100242.47;;;27.92;27.76
22440;BME280;11387;51.612;7.210;2023-03-18T11:29:58;100241.53;;;27.17;29.43
22440;BME280;11387;51.612;7.210;2023-03-18T11:32:28;100242.75;;;25.20;31.50
22440;BME280;11387;51.612;7.210;2023-03-18T11:35:02;100242.09;;;23.56;34.70
22440;BME280;11387;51.612;7.210;2023-03-18T11:37:35;100245.81;;;26.58;31.17
22440;BME280;11387;51.612;7.210;2023-03-18T11:40:19;100242.00;;;32.10;23.62
22440;BME280;11387;51.612;7.210;2023-03-18T11:42:54;100232.09;;;34.29;21.84
22440;BME280;11387;51.612;7.210;2023-03-18T11:45:36;100232.22;;;32.36;21.49
22440;BME280;11387;51.612;7.210;2023-03-18T11:48:14;100235.13;;;27.74;26.67
22440;BME280;11387;51.612;7.210;2023-03-18T11:50:56;100243.78;;;26.58;29.05
22440;BME280;11387;51.612;7.210;2023-03-18T11:53:41;100234.53;;;28.57;26.50
22440;BME280;11387;51.612;7.210;2023-03-18T11:56:22;100232.88;;;30.56;24.91
22440;BME280;11387;51.612;7.210;2023-03-18T11:59:07;100241.38;;;28.99;25.68
22440;BME280;11387;51.612;7.210;2023-03-18T12:01:47;100246.69;;;25.37;30.20
22440;BME280;11387;51.612;7.210;2023-03-18T12:04:38;100242.19;;;23.84;33.00
22440;BME280;11387;51.612;7.210;2023-03-18T12:10:14;100238.66;;;20.80;39.29
22440;BME280;11387;51.612;7.210;2023-03-18T12:13:00;100239.59;;;20.91;39.45
22440;BME280;11387;51.612;7.210;2023-03-18T12:15:40;100233.63;;;23.21;36.31
22440;BME280;11387;51.612;7.210;2023-03-18T12:18:21;100230.72;;;25.27;31.82
22440;BME280;11387;51.612;7.210;2023-03-18T12:20:52;100230.84;;;27.90;28.72
22440;BME280;11387;51.612;7.210;2023-03-18T12:23:41;100225.97;;;25.86;30.75
22440;BME280;11387;51.612;7.210;2023-03-18T12:26:24;100235.00;;;24.40;32.60
22440;BME280;11387;51.612;7.210;2023-03-18T12:29:30;100228.56;;;21.28;37.38
22440;BME280;11387;51.612;7.210;2023-03-18T12:32:21;100227.44;;;20.20;39.95
22440;BME280;11387;51.612;7.210;2023-03-18T12:35:03;100228.81;;;20.86;39.25
22440;BME280;11387;51.612;7.210;2023-03-18T12:37:51;100225.69;;;22.54;36.10
22440;BME280;11387;51.612;7.210;2023-03-18T12:40:38;100219.75;;;24.70;32.14
22440;BME280;11387;51.612;7.210;2023-03-18T12:43:35;100219.59;;;23.06;34.23
22440;BME280;11387;51.612;7.210;2023-03-18T12:46:26;100218.66;;;21.71;37.34
22440;BME280;11387;51.612;7.210;2023-03-18T12:49:03;100219.81;;;22.11;36.85
22440;BME280;11387;51.612;7.210;2023-03-18T12:51:43;100223.28;;;22.48;35.66
22440;BME280;11387;51.612;7.210;2023-03-18T12:54:18;100220.25;;;21.72;36.67
22440;BME280;11387;51.612;7.210;2023-03-18T12:56:58;100225.06;;;21.35;37.27
22440;BME280;11387;51.612;7.210;2023-03-18T12:59:31;100231.00;;;20.70;38.36
22440;BME280;11387;51.612;7.210;2023-03-18T13:02:36;100206.50;;;20.79;38.31
22440;BME280;11387;51.612;7.210;2023-03-18T13:05:23;100209.19;;;21.05;37.96
22440;BME280;11387;51.612;7.210;2023-03-18T13:10:53;100192.94;;;25.63;29.88
22440;BME280;11387;51.612;7.210;2023-03-18T13:13:25;100195.25;;;25.06;30.83
22440;BME280;11387;51.612;7.210;2023-03-18T13:15:58;100191.09;;;25.91;29.84
22440;BME280;11387;51.612;7.210;2023-03-18T13:18:32;100207.50;;;25.33;30.35
22440;BME280;11387;51.612;7.210;2023-03-18T13:21:04;100201.38;;;24.51;31.16
22440;BME280;11387;51.612;7.210;2023-03-18T13:23:47;100193.75;;;22.40;33.29
22440;BME280;11387;51.612;7.210;2023-03-18T13:26:26;100193.91;;;22.69;33.91